Time;durP1;ratioP1;P1;durP2;ratioP2;P2;SDS_P1;SDS_P2;PMS_P1;PMS_P2;Temp;Humidity;BMP_temperature;BMP_pressure;BME280_temperature;BME280_humidity;BME280_pressure;Samples;Min_cycle;Max_cycle;Signal;HPM_P1;HPM_P2
2023/09/07 00:01:20;;;;;;;10.32;2.20;;;;;;;;;;5091321;28;20024;-79
2023/09/07 00:03:46;;;;;;;8.05;1.85;;;;;;;;;;5090915;28;20031;-79
2023/09/07 00:06:11;;;;;;;9.75;2.20;;;;;;;;;;5092446;28;20060;-79
2023/09/07 00:08:36;;;;;;;6.75;2.22;;;;;;;;;;5091234;28;20093;-79
2023/09/07 00:11:03;;;;;;;10.45;2.28;;;;;;;;;;5097342;28;20085;-79
2023/09/07 00:13:28;;;;;;;7.28;1.83;;;;;;;;;;5085951;28;20081;-79
2023/09/07 00:15:57;;;;;;;5.15;2.15;;;;;;;;;;5090911;28;20040;-79
2023/09/07 00:18:23;;;;;;;9.13;2.20;;;;;;;;;;5073942;28;20423;-79
2023/09/07 00:20:49;;;;;;;6.82;1.88;;;;;;;;;;5092340;28;20028;-79
2023/09/07 00:23:14;;;;;;;6.63;2.28;;;;;;;;;;5091131;28;20471;-79
2023/09/07 00:25:40;;;;;;;8.30;2.30;;;;;;;;;;5073999;28;20135;-79
2023/09/07 00:28:05;;;;;;;4.82;2.30;;;;;;;;;;5085805;28;20040;-80
2023/09/07 00:30:31;;;;;;;6.78;2.28;;;;;;;;;;5092641;28;20043;-80
2023/09/07 00:32:56;;;;;;;5.53;2.00;;;;;;;;;;5091034;28;20031;-79
2023/09/07 00:35:21;;;;;;;6.75;1.98;;;;;;;;;;5092612;28;20044;-80
2023/09/07 00:37:47;;;;;;;8.73;2.13;;;;;;;;;;5092681;28;20024;-79
2023/09/07 00:40:12;;;;;;;7.63;2.00;;;;;;;;;;5091818;28;20460;-79
2023/09/07 00:42:38;;;;;;;6.43;2.10;;;;;;;;;;5089255;28;20021;-79
2023/09/07 00:45:04;;;;;;;8.38;2.35;;;;;;;;;;5090749;28;20093;-79
2023/09/07 00:47:29;;;;;;;6.85;2.10;;;;;;;;;;5090358;28;20059;-80
2023/09/07 00:49:55;;;;;;;8.25;1.75;;;;;;;;;;5070948;28;20559;-79
2023/09/07 00:52:21;;;;;;;14.45;2.45;;;;;;;;;;5075067;28;20124;-80
2023/09/07 00:54:46;;;;;;;8.10;2.10;;;;;;;;;;5070779;28;20078;-79
2023/09/07 00:57:12;;;;;;;7.47;2.05;;;;;;;;;;5072402;28;20019;-80
2023/09/07 00:59:37;;;;;;;8.75;2.13;;;;;;;;;;5087889;28;20035;-79
2023/09/07 01:02:05;;;;;;;9.73;2.00;;;;;;;;;;5084055;28;20372;-79
2023/09/07 01:04:31;;;;;;;9.50;2.30;;;;;;;;;;5089654;28;20039;-79
2023/09/07 01:06:59;;;;;;;7.60;1.85;;;;;;;;;;5089963;28;20058;-78
2023/09/07 01:09:26;;;;;;;9.05;1.90;;;;;;;;;;5092006;28;20110;-79
2023/09/07 01:11:52;;;;;;;6.68;2.25;;;;;;;;;;5072461;28;20035;-79
2023/09/07 01:14:18;;;;;;;8.98;1.88;;;;;;;;;;5096456;28;20040;-78
2023/09/07 01:16:43;;;;;;;7.40;1.90;;;;;;;;;;5076630;28;20100;-79
2023/09/07 01:19:09;;;;;;;4.43;1.80;;;;;;;;;;5089993;28;20092;-79
2023/09/07 01:21:35;;;;;;;5.13;1.77;;;;;;;;;;5089575;28;20076;-79
2023/09/07 01:24:02;;;;;;;5.55;2.00;;;;;;;;;;5072874;28;20032;-79
2023/09/07 01:26:28;;;;;;;5.78;1.50;;;;;;;;;;5052342;28;20147;-79
2023/09/07 01:28:53;;;;;;;5.63;1.73;;;;;;;;;;5073144;28;20115;-79
2023/09/07 01:31:19;;;;;;;5.13;2.15;;;;;;;;;;5072603;28;20028;-79
2023/09/07 01:33:45;;;;;;;4.50;1.63;;;;;;;;;;5070056;28;20477;-79
2023/09/07 01:36:11;;;;;;;8.05;1.85;;;;;;;;;;5085644;28;20024;-78
2023/09/07 01:38:37;;;;;;;4.88;2.00;;;;;;;;;;5090895;28;20038;-80
2023/09/07 01:41:02;;;;;;;8.25;1.80;;;;;;;;;;5089188;28;20040;-80
2023/09/07 01:43:27;;;;;;;5.68;1.67;;;;;;;;;;5091069;28;20036;-80
2023/09/07 01:45:53;;;;;;;7.40;2.13;;;;;;;;;;5091828;28;20524;-80
2023/09/07 01:48:19;;;;;;;5.60;1.90;;;;;;;;;;5072930;28;20131;-80
2023/09/07 01:50:44;;;;;;;8.02;2.03;;;;;;;;;;5072815;28;20024;-80
2023/09/07 01:53:10;;;;;;;6.45;1.92;;;;;;;;;;5089459;28;20089;-80
2023/09/07 01:55:35;;;;;;;8.82;2.15;;;;;;;;;;5090913;28;20056;-80
2023/09/07 01:58:01;;;;;;;7.60;1.80;;;;;;;;;;5056214;28;20039;-80
2023/09/07 02:00:27;;;;;;;5.60;1.55;;;;;;;;;;5069880;28;20467;-80
2023/09/07 02:02:52;;;;;;;5.97;1.50;;;;;;;;;;5082548;28;20094;-79
2023/09/07 02:05:18;;;;;;;7.18;1.45;;;;;;;;;;5088543;28;20065;-80
2023/09/07 02:07:43;;;;;;;5.13;2.00;;;;;;;;;;5088965;28;20125;-80
2023/09/07 02:10:09;;;;;;;4.88;1.73;;;;;;;;;;5073905;28;20028;-80
2023/09/07 02:12:35;;;;;;;4.05;1.60;;;;;;;;;;5077547;28;20039;-79
2023/09/07 02:15:01;;;;;;;6.95;1.50;;;;;;;;;;5090883;28;20020;-80
2023/09/07 02:17:26;;;;;;;8.65;1.60;;;;;;;;;;5098117;28;20039;-80
2023/09/07 02:19:52;;;;;;;8.15;1.67;;;;;;;;;;5089481;28;20028;-80
2023/09/07 02:22:18;;;;;;;6.75;1.83;;;;;;;;;;5091408;28;20097;-79
2023/09/07 02:24:43;;;;;;;4.13;1.60;;;;;;;;;;5092322;28;20012;-79
2023/09/07 02:27:09;;;;;;;5.80;1.90;;;;;;;;;;5094916;28;20083;-79
2023/09/07 02:29:34;;;;;;;5.32;1.80;;;;;;;;;;5093625;28;20028;-80
2023/09/07 02:32:00;;;;;;;7.65;1.90;;;;;;;;;;5093701;28;20040;-79
2023/09/07 02:34:25;;;;;;;5.63;2.17;;;;;;;;;;5092843;28;20035;-80
2023/09/07 02:36:51;;;;;;;7.57;1.88;;;;;;;;;;5092991;28;20031;-80
2023/09/07 02:39:18;;;;;;;7.90;1.73;;;;;;;;;;5093170;28;20016;-80
2023/09/07 02:41:45;;;;;;;6.63;1.80;;;;;;;;;;5076144;28;20032;-79
2023/09/07 02:44:12;;;;;;;7.95;2.60;;;;;;;;;;5074915;28;20024;-80
2023/09/07 02:46:37;;;;;;;10.45;1.90;;;;;;;;;;5092795;28;20032;-79
2023/09/07 02:49:03;;;;;;;9.52;2.20;;;;;;;;;;5094669;28;20077;-79
2023/09/07 02:51:29;;;;;;;8.32;1.80;;;;;;;;;;5103033;28;20039;-79
2023/09/07 02:53:55;;;;;;;5.57;1.75;;;;;;;;;;5075365;28;20074;-79
2023/09/07 02:56:21;;;;;;;9.13;2.10;;;;;;;;;;5092478;28;20116;-79
2023/09/07 02:58:47;;;;;;;7.30;2.35;;;;;;;;;;5092471;28;20422;-79
2023/09/07 03:01:13;;;;;;;8.93;2.00;;;;;;;;;;5092589;28;20487;-79
2023/09/07 03:03:41;;;;;;;10.48;2.30;;;;;;;;;;5075059;28;20538;-79
2023/09/07 03:06:11;;;;;;;8.65;2.20;;;;;;;;;;5093303;28;20056;-79
2023/09/07 03:08:36;;;;;;;6.53;1.95;;;;;;;;;;5073644;28;20028;-79
2023/09/07 03:11:03;;;;;;;7.88;1.95;;;;;;;;;;5071909;28;20510;-79
2023/09/07 03:13:28;;;;;;;6.45;1.90;;;;;;;;;;5090516;28;20023;-78
2023/09/07 03:15:55;;;;;;;8.38;1.88;;;;;;;;;;5092631;28;20039;-79
2023/09/07 03:18:21;;;;;;;7.53;2.00;;;;;;;;;;5081028;28;20483;-79
2023/09/07 03:20:47;;;;;;;9.27;2.05;;;;;;;;;;5091956;28;20038;-79
2023/09/07 03:23:12;;;;;;;7.82;1.90;;;;;;;;;;5098319;28;20143;-79
2023/09/07 03:25:38;;;;;;;11.38;2.47;;;;;;;;;;5094128;28;20082;-80
2023/09/07 03:28:04;;;;;;;12.15;2.20;;;;;;;;;;5075106;28;20036;-79
2023/09/07 03:30:30;;;;;;;7.15;2.20;;;;;;;;;;5091288;28;20482;-79
2023/09/07 03:32:56;;;;;;;9.05;2.20;;;;;;;;;;5075324;28;20131;-78
2023/09/07 03:35:21;;;;;;;11.10;2.25;;;;;;;;;;5091172;28;20036;-79
2023/09/07 03:37:47;;;;;;;;;;;;;;;;;;5075104;28;20019;-79
2023/09/07 03:40:12;;;;;;;7.25;2.38;;;;;;;;;;5090282;28;19918;-80
2023/09/07 03:42:39;;;;;;;10.18;2.50;;;;;;;;;;5091606;28;20481;-79
2023/09/07 03:45:05;;;;;;;6.78;1.95;;;;;;;;;;5091704;28;20032;-79
2023/09/07 03:47:32;;;;;;;6.90;2.10;;;;;;;;;;5058136;28;20031;-79
2023/09/07 03:49:58;;;;;;;9.23;2.05;;;;;;;;;;5092860;28;20035;-79
2023/09/07 03:52:26;;;;;;;14.68;2.10;;;;;;;;;;5091545;28;20026;-80
2023/09/07 03:54:53;;;;;;;6.80;2.05;;;;;;;;;;5091824;28;20452;-78
2023/09/07 03:57:19;;;;;;;8.05;2.13;;;;;;;;;;5091546;28;20024;-79
2023/09/07 03:59:45;;;;;;;4.70;1.63;;;;;;;;;;5071539;28;20380;-80
2023/09/07 04:02:12;;;;;;;9.75;2.22;;;;;;;;;;5084963;28;20020;-80
2023/09/07 04:04:38;;;;;;;11.13;2.70;;;;;;;;;;5076390;28;20068;-80
2023/09/07 04:07:03;;;;;;;17.95;2.35;;;;;;;;;;5087836;28;20058;-80
2023/09/07 04:09:29;;;;;;;9.23;2.05;;;;;;;;;;5090802;28;20118;-79
2023/09/07 04:11:54;;;;;;;8.55;1.90;;;;;;;;;;5070683;28;20497;-79
2023/09/07 04:14:20;;;;;;;8.88;2.15;;;;;;;;;;5074171;28;20036;-80
2023/09/07 04:16:45;;;;;;;9.77;2.45;;;;;;;;;;5091005;28;20034;-80
2023/09/07 04:19:11;;;;;;;7.90;2.47;;;;;;;;;;5091478;28;20053;-80
2023/09/07 04:21:36;;;;;;;;;;;;;;;;;;5074499;28;20512;-79
2023/09/07 04:24:02;;;;;;;6.88;1.95;;;;;;;;;;5103244;28;19912;-78
2023/09/07 04:26:28;;;;;;;;;;;;;;;;;;5089112;28;20063;-78
2023/09/07 04:28:54;;;;;;;6.40;1.92;;;;;;;;;;5107653;28;19919;-79
2023/09/07 04:31:21;;;;;;;5.38;1.80;;;;;;;;;;5074491;28;20395;-79
2023/09/07 04:33:46;;;;;;;9.95;1.98;;;;;;;;;;5091212;28;20039;-79
2023/09/07 04:36:12;;;;;;;11.30;2.10;;;;;;;;;;5092178;28;20114;-79
2023/09/07 04:38:39;;;;;;;6.70;1.83;;;;;;;;;;5083678;28;20092;-79
2023/09/07 04:41:11;;;;;;;7.78;2.10;;;;;;;;;;5091397;28;20106;-79
2023/09/07 04:43:37;;;;;;;8.48;2.05;;;;;;;;;;5090336;28;20376;-79
2023/09/07 04:46:02;;;;;;;5.22;2.17;;;;;;;;;;5089520;28;20020;-79
2023/09/07 04:48:28;;;;;;;;;;;;;;;;;;5092273;28;20071;-79
2023/09/07 04:50:59;;;;;;;7.57;1.70;;;;;;;;;;5073792;28;20248;-79
2023/09/07 04:53:25;;;;;;;7.13;1.98;;;;;;;;;;5086526;28;20036;-79
2023/09/07 04:55:50;;;;;;;5.43;1.67;;;;;;;;;;5097468;28;20020;-79
2023/09/07 04:58:16;;;;;;;9.65;2.50;;;;;;;;;;5073040;28;20173;-79
2023/09/07 05:00:42;;;;;;;4.85;1.95;;;;;;;;;;5073433;28;20453;-79
2023/09/07 05:03:33;;;;;;;8.45;1.70;;;;;;;;;;5088979;28;20039;-80
2023/09/07 05:05:59;;;;;;;7.95;2.38;;;;;;;;;;5089689;28;20357;-80
2023/09/07 05:08:24;;;;;;;7.35;1.50;;;;;;;;;;5089984;28;20039;-79
2023/09/07 05:11:00;;;;;;;6.85;1.52;;;;;;;;;;5090603;28;20324;-79
2023/09/07 05:13:25;;;;;;;3.25;1.35;;;;;;;;;;5070266;28;20033;-80
2023/09/07 05:15:52;;;;;;;5.38;1.67;;;;;;;;;;5072073;28;20102;-82
2023/09/07 05:18:18;;;;;;;6.72;1.60;;;;;;;;;;5064774;28;20040;-82
2023/09/07 05:20:48;;;;;;;4.35;1.30;;;;;;;;;;5069854;28;20383;-80
2023/09/07 05:23:15;;;;;;;5.70;1.20;;;;;;;;;;5080525;28;20033;-82
2023/09/07 05:25:45;;;;;;;4.22;0.95;;;;;;;;;;5079256;28;20498;-82
2023/09/07 05:28:12;;;;;;;4.25;1.20;;;;;;;;;;5069803;28;20093;-81
2023/09/07 05:30:37;;;;;;;6.18;2.40;;;;;;;;;;5088545;28;20502;-81
2023/09/07 05:33:03;;;;;;;8.57;2.75;;;;;;;;;;5072640;28;20031;-81
2023/09/07 05:35:32;;;;;;;7.75;2.28;;;;;;;;;;5081765;28;20037;-81
2023/09/07 05:37:58;;;;;;;3.00;1.10;;;;;;;;;;5089631;28;20024;-80
2023/09/07 05:40:24;;;;;;;3.92;1.50;;;;;;;;;;5099358;28;20081;-82
2023/09/07 05:42:49;;;;;;;4.32;1.08;;;;;;;;;;5090986;28;20024;-82
2023/09/07 05:45:15;;;;;;;4.95;1.70;;;;;;;;;;5089948;28;20035;-83
2023/09/07 05:47:40;;;;;;;4.25;0.90;;;;;;;;;;5088008;28;20391;-81
2023/09/07 05:50:06;;;;;;;4.47;1.30;;;;;;;;;;5081763;28;20043;-82
2023/09/07 05:52:32;;;;;;;2.42;1.15;;;;;;;;;;5072748;28;20024;-81
2023/09/07 05:54:57;;;;;;;5.10;0.98;;;;;;;;;;5089179;28;20482;-81
2023/09/07 05:57:23;;;;;;;4.70;1.02;;;;;;;;;;5090154;28;20039;-81
2023/09/07 05:59:49;;;;;;;2.55;0.93;;;;;;;;;;5066280;28;20109;-81
2023/09/07 06:02:15;;;;;;;3.85;1.60;;;;;;;;;;5093510;28;20486;-81
2023/09/07 06:04:40;;;;;;;3.97;0.93;;;;;;;;;;5073252;28;20078;-82
2023/09/07 06:07:06;;;;;;;4.35;1.10;;;;;;;;;;5092552;28;20023;-81
2023/09/07 06:09:32;;;;;;;3.83;1.75;;;;;;;;;;5094179;28;20531;-80
2023/09/07 06:11:57;;;;;;;3.00;1.27;;;;;;;;;;5093304;28;20023;-81
2023/09/07 06:14:23;;;;;;;2.90;1.20;;;;;;;;;;5096850;28;20131;-81
2023/09/07 06:16:48;;;;;;;2.50;0.90;;;;;;;;;;5093194;28;20150;-83
2023/09/07 06:19:14;;;;;;;2.45;1.00;;;;;;;;;;5094972;28;20485;-83
2023/09/07 06:21:40;;;;;;;4.20;1.20;;;;;;;;;;5093155;28;21196;-82
2023/09/07 06:24:06;;;;;;;2.88;0.70;;;;;;;;;;5092824;28;20471;-80
2023/09/07 06:26:32;;;;;;;2.67;0.90;;;;;;;;;;5075897;28;20142;-82
2023/09/07 06:28:58;;;;;;;3.53;1.20;;;;;;;;;;5073000;28;20112;-82
2023/09/07 06:31:23;;;;;;;2.63;0.98;;;;;;;;;;5092399;28;20043;-82
2023/09/07 06:33:49;;;;;;;2.50;0.85;;;;;;;;;;5089231;28;20071;-82
2023/09/07 06:36:14;;;;;;;4.40;1.13;;;;;;;;;;5093219;28;20506;-81
2023/09/07 06:38:40;;;;;;;2.75;0.85;;;;;;;;;;5092386;28;20115;-81
2023/09/07 06:41:07;;;;;;;2.08;0.93;;;;;;;;;;5084287;28;20031;-81
2023/09/07 06:43:33;;;;;;;1.70;1.00;;;;;;;;;;5075517;28;20020;-81
2023/09/07 06:46:03;;;;;;;2.92;1.00;;;;;;;;;;5091983;28;20038;-82
2023/09/07 06:48:29;;;;;;;1.85;0.75;;;;;;;;;;5085468;28;20040;-83
2023/09/07 06:50:54;;;;;;;2.30;1.05;;;;;;;;;;5092574;28;20031;-82
2023/09/07 06:53:20;;;;;;;2.47;0.95;;;;;;;;;;5071868;28;20031;-82
2023/09/07 06:55:45;;;;;;;2.45;1.00;;;;;;;;;;5094071;28;20032;-82
2023/09/07 06:58:11;;;;;;;2.70;1.00;;;;;;;;;;5079457;28;20023;-82
2023/09/07 07:00:37;;;;;;;3.00;1.00;;;;;;;;;;5075160;28;20032;-82
2023/09/07 07:03:03;;;;;;;3.28;1.10;;;;;;;;;;5092625;28;20074;-81
2023/09/07 07:05:29;;;;;;;3.00;0.90;;;;;;;;;;5091778;28;20039;-83
2023/09/07 07:07:55;;;;;;;2.95;1.00;;;;;;;;;;5092237;28;20016;-81
2023/09/07 07:10:21;;;;;;;1.67;0.90;;;;;;;;;;5091043;28;20036;-81
2023/09/07 07:12:46;;;;;;;4.95;0.95;;;;;;;;;;5093258;28;20035;-82
2023/09/07 07:15:12;;;;;;;2.40;0.93;;;;;;;;;;5093590;28;20085;-82
2023/09/07 07:17:37;;;;;;;2.67;1.10;;;;;;;;;;5091404;28;20490;-81
2023/09/07 07:20:04;;;;;;;2.17;0.70;;;;;;;;;;5091784;28;20422;-81
2023/09/07 07:22:29;;;;;;;1.73;0.80;;;;;;;;;;5090915;28;20031;-82
2023/09/07 07:24:55;;;;;;;1.70;0.80;;;;;;;;;;5074839;28;20027;-81
2023/09/07 07:27:21;;;;;;;6.03;1.00;;;;;;;;;;5090992;28;20052;-82
2023/09/07 07:29:46;;;;;;;2.85;1.35;;;;;;;;;;5093040;28;20042;-82
2023/09/07 07:32:12;;;;;;;3.22;0.77;;;;;;;;;;5086088;28;20025;-82
2023/09/07 07:34:38;;;;;;;1.75;0.70;;;;;;;;;;5060484;28;20032;-83
2023/09/07 07:37:03;;;;;;;2.63;1.00;;;;;;;;;;5091284;28;20020;-83
2023/09/07 07:39:29;;;;;;;3.72;0.90;;;;;;;;;;5074247;28;20024;-83
2023/09/07 07:41:56;;;;;;;2.90;0.80;;;;;;;;;;5092456;28;20430;-83
2023/09/07 07:44:22;;;;;;;4.13;0.90;;;;;;;;;;5090498;28;20090;-83
2023/09/07 07:46:48;;;;;;;2.65;0.98;;;;;;;;;;5091145;28;20031;-82
2023/09/07 07:49:15;;;;;;;1.95;0.90;;;;;;;;;;5091471;28;20032;-82
2023/09/07 07:51:41;;;;;;;2.03;0.70;;;;;;;;;;5086276;28;20463;-82
2023/09/07 07:54:07;;;;;;;1.23;0.60;;;;;;;;;;5092293;28;20461;-82
2023/09/07 07:56:32;;;;;;;2.85;0.70;;;;;;;;;;5074083;28;20103;-82
2023/09/07 07:58:58;;;;;;;2.75;1.08;;;;;;;;;;5090250;28;20028;-82
2023/09/07 08:01:26;;;;;;;1.98;0.70;;;;;;;;;;5090796;28;20015;-83
2023/09/07 08:03:53;;;;;;;3.17;1.10;;;;;;;;;;5090591;28;20428;-83
2023/09/07 08:06:19;;;;;;;3.58;0.90;;;;;;;;;;5091294;28;20115;-82
2023/09/07 08:08:45;;;;;;;1.70;0.85;;;;;;;;;;5074124;28;20070;-82
2023/09/07 08:11:11;;;;;;;2.05;0.90;;;;;;;;;;5074939;28;20066;-82
2023/09/07 08:13:39;;;;;;;2.00;0.93;;;;;;;;;;5073906;28;20490;-84
2023/09/07 08:16:06;;;;;;;2.63;0.80;;;;;;;;;;5090675;28;20082;-83
2023/09/07 08:18:32;;;;;;;1.92;1.00;;;;;;;;;;5090314;28;20060;-83
2023/09/07 08:20:58;;;;;;;2.10;1.00;;;;;;;;;;5070422;28;20025;-84
2023/09/07 08:23:23;;;;;;;1.75;0.90;;;;;;;;;;5090271;28;20398;-82
2023/09/07 08:25:53;;;;;;;2.95;1.10;;;;;;;;;;5086352;28;20173;-82
2023/09/07 08:28:21;;;;;;;2.10;1.30;;;;;;;;;;5069600;28;20036;-82
2023/09/07 08:30:53;;;;;;;3.25;1.35;;;;;;;;;;5090959;28;20054;-82
2023/09/07 08:33:19;;;;;;;3.28;1.00;;;;;;;;;;5087032;28;20040;-82
2023/09/07 08:35:45;;;;;;;3.55;0.85;;;;;;;;;;5091691;28;20079;-83
2023/09/07 08:38:11;;;;;;;1.27;0.80;;;;;;;;;;5091186;28;20024;-82
2023/09/07 08:40:40;;;;;;;3.13;0.98;;;;;;;;;;5084181;28;20442;-81
2023/09/07 08:43:09;;;;;;;2.30;0.80;;;;;;;;;;5079110;28;20027;-83
2023/09/07 08:45:37;;;;;;;3.28;0.80;;;;;;;;;;5089215;28;20043;-83
2023/09/07 08:48:03;;;;;;;1.23;0.70;;;;;;;;;;5073067;28;20529;-82
2023/09/07 08:50:30;;;;;;;1.80;0.75;;;;;;;;;;5090187;28;20036;-83
2023/09/07 08:52:59;;;;;;;1.52;0.60;;;;;;;;;;5090351;28;20032;-82
2023/09/07 08:55:24;;;;;;;4.43;0.82;;;;;;;;;;5102603;28;20020;-81
2023/09/07 08:57:50;;;;;;;1.70;0.50;;;;;;;;;;5090180;28;20035;-83
2023/09/07 09:00:16;;;;;;;1.23;0.60;;;;;;;;;;5072991;28;20028;-81
2023/09/07 09:02:45;;;;;;;6.43;0.60;;;;;;;;;;5090741;28;20055;-82
2023/09/07 09:05:11;;;;;;;1.88;0.70;;;;;;;;;;5091992;28;20036;-82
2023/09/07 09:07:37;;;;;;;4.72;0.95;;;;;;;;;;5090387;28;20139;-84
2023/09/07 09:10:06;;;;;;;3.78;1.00;;;;;;;;;;5089781;28;20105;-83
2023/09/07 09:12:32;;;;;;;0.82;0.52;;;;;;;;;;5089860;28;20066;-81
2023/09/07 09:14:58;;;;;;;1.20;0.60;;;;;;;;;;5091021;28;20593;-81
2023/09/07 09:17:24;;;;;;;1.48;1.10;;;;;;;;;;5097852;28;20028;-82
2023/09/07 09:19:49;;;;;;;3.30;0.70;;;;;;;;;;5092933;28;20404;-83
2023/09/07 09:22:15;;;;;;;0.88;0.50;;;;;;;;;;5090042;28;20028;-82
2023/09/07 09:24:40;;;;;;;1.30;0.50;;;;;;;;;;5072887;28;20080;-83
2023/09/07 09:27:06;;;;;;;2.33;0.40;;;;;;;;;;5089546;28;20507;-84
2023/09/07 09:29:35;;;;;;;1.25;0.43;;;;;;;;;;5089161;28;20107;-83
2023/09/07 09:32:04;;;;;;;3.60;0.60;;;;;;;;;;5072696;28;20479;-82
2023/09/07 09:34:36;;;;;;;1.25;0.40;;;;;;;;;;5089793;28;20372;-82
2023/09/07 09:37:03;;;;;;;1.25;0.50;;;;;;;;;;5090240;28;20383;-81
2023/09/07 09:39:29;;;;;;;2.45;0.70;;;;;;;;;;5088025;28;20020;-82
2023/09/07 09:41:55;;;;;;;5.68;0.70;;;;;;;;;;5073663;28;20043;-82
2023/09/07 09:44:21;;;;;;;1.45;0.60;;;;;;;;;;5090298;28;20024;-82
2023/09/07 09:46:47;;;;;;;0.75;0.40;;;;;;;;;;5069556;28;20032;-82
2023/09/07 09:49:13;;;;;;;2.38;0.52;;;;;;;;;;5088744;28;20490;-83
2023/09/07 09:51:39;;;;;;;2.80;0.60;;;;;;;;;;5090499;28;20520;-83
2023/09/07 09:54:05;;;;;;;4.15;0.70;;;;;;;;;;5091169;28;20016;-83
2023/09/07 09:56:30;;;;;;;0.93;0.32;;;;;;;;;;5089585;28;20059;-82
2023/09/07 09:58:56;;;;;;;0.85;0.38;;;;;;;;;;5090322;28;20023;-82
2023/09/07 10:01:22;;;;;;;1.10;0.70;;;;;;;;;;5090843;28;20034;-83
2023/09/07 10:03:48;;;;;;;1.27;0.60;;;;;;;;;;5091362;28;20020;-83
2023/09/07 10:06:23;;;;;;;3.78;0.63;;;;;;;;;;5091474;28;20101;-82
2023/09/07 10:09:08;;;;;;;2.45;1.08;;;;;;;;;;5090238;28;20036;-82
2023/09/07 10:11:34;;;;;;;4.18;0.93;;;;;;;;;;5089703;28;20441;-83
2023/09/07 10:14:00;;;;;;;1.55;0.57;;;;;;;;;;5072446;28;20035;-82
2023/09/07 10:16:27;;;;;;;1.42;0.63;;;;;;;;;;5090218;28;20036;-82
2023/09/07 10:18:52;;;;;;;1.73;0.70;;;;;;;;;;5090839;28;20074;-83
2023/09/07 10:21:18;;;;;;;3.33;0.80;;;;;;;;;;5090214;28;20044;-83
2023/09/07 10:23:44;;;;;;;1.10;0.50;;;;;;;;;;5073046;28;20093;-83
2023/09/07 10:26:12;;;;;;;2.75;0.60;;;;;;;;;;5072490;28;20079;-83
2023/09/07 10:28:38;;;;;;;1.83;0.60;;;;;;;;;;5091478;28;20085;-84
2023/09/07 10:31:04;;;;;;;1.60;0.52;;;;;;;;;;5088529;28;20039;-84
2023/09/07 10:33:30;;;;;;;1.15;0.50;;;;;;;;;;5088548;28;20048;-84
2023/09/07 10:35:56;;;;;;;2.50;0.60;;;;;;;;;;5071238;28;21131;-83
2023/09/07 10:38:22;;;;;;;2.58;0.50;;;;;;;;;;5073121;28;20052;-82
2023/09/07 10:40:48;;;;;;;0.98;0.50;;;;;;;;;;5089068;28;20028;-83
2023/09/07 10:43:13;;;;;;;0.93;0.50;;;;;;;;;;5073107;28;20035;-84
2023/09/07 10:45:39;;;;;;;4.30;0.57;;;;;;;;;;5059234;28;20559;-83
2023/09/07 10:48:06;;;;;;;1.88;0.50;;;;;;;;;;5073196;28;20016;-83
2023/09/07 10:50:41;;;;;;;1.70;0.60;;;;;;;;;;5075477;28;20620;-84
2023/09/07 10:53:07;;;;;;;1.02;0.60;;;;;;;;;;5094243;28;20028;-84
2023/09/07 10:55:36;;;;;;;3.67;0.90;;;;;;;;;;5093344;28;20076;-83
2023/09/07 10:58:02;;;;;;;1.98;0.60;;;;;;;;;;5093072;28;20028;-83
2023/09/07 11:00:28;;;;;;;1.92;0.50;;;;;;;;;;5093463;28;20016;-83
2023/09/07 11:02:54;;;;;;;2.50;0.68;;;;;;;;;;5093874;28;20039;-83
2023/09/07 11:05:19;;;;;;;5.15;0.80;;;;;;;;;;5071768;28;20025;-83
2023/09/07 11:07:45;;;;;;;4.32;0.90;;;;;;;;;;5092748;28;20054;-83
2023/09/07 11:10:10;;;;;;;1.40;0.60;;;;;;;;;;5093943;28;20024;-83
2023/09/07 11:12:36;;;;;;;1.65;0.70;;;;;;;;;;5092234;28;20032;-82
2023/09/07 11:15:02;;;;;;;3.78;0.70;;;;;;;;;;5092544;28;20028;-83
2023/09/07 11:17:28;;;;;;;3.50;1.00;;;;;;;;;;5093304;28;20101;-83
2023/09/07 11:19:53;;;;;;;2.25;0.60;;;;;;;;;;5071902;28;20024;-83
2023/09/07 11:22:19;;;;;;;1.67;0.70;;;;;;;;;;5086430;28;20038;-83
2023/09/07 11:24:45;;;;;;;0.77;0.55;;;;;;;;;;5091573;28;20105;-82
2023/09/07 11:27:10;;;;;;;2.25;0.70;;;;;;;;;;5072485;28;20052;-83
2023/09/07 11:29:36;;;;;;;1.42;0.85;;;;;;;;;;5092939;28;20036;-83
2023/09/07 11:32:08;;;;;;;1.30;0.50;;;;;;;;;;5093956;28;20124;-82
2023/09/07 11:34:34;;;;;;;1.15;0.50;;;;;;;;;;5090063;28;20487;-82
2023/09/07 11:36:59;;;;;;;1.83;0.70;;;;;;;;;;5092947;28;20039;-83
2023/09/07 11:39:25;;;;;;;2.65;0.77;;;;;;;;;;5091662;28;20039;-82
2023/09/07 11:41:50;;;;;;;3.95;0.50;;;;;;;;;;5093161;28;20028;-83
2023/09/07 11:44:15;;;;;;;1.55;0.82;;;;;;;;;;5089393;28;20040;-82
2023/09/07 11:46:41;;;;;;;1.10;0.35;;;;;;;;;;5090702;28;20031;-83
2023/09/07 11:49:08;;;;;;;2.08;0.70;;;;;;;;;;5093211;28;20070;-81
2023/09/07 11:51:34;;;;;;;1.15;0.55;;;;;;;;;;5092398;28;20016;-83
2023/09/07 11:54:01;;;;;;;1.48;0.60;;;;;;;;;;5091541;28;20514;-82
2023/09/07 11:56:27;;;;;;;2.13;0.63;;;;;;;;;;5074095;28;20061;-81
2023/09/07 11:58:52;;;;;;;1.58;0.50;;;;;;;;;;5092700;28;20116;-82
2023/09/07 12:01:18;;;;;;;5.15;0.90;;;;;;;;;;5092951;28;20513;-82
2023/09/07 12:03:44;;;;;;;1.08;0.50;;;;;;;;;;5091388;28;20023;-82
2023/09/07 12:06:09;;;;;;;2.05;0.70;;;;;;;;;;5091145;28;20060;-83
2023/09/07 12:08:36;;;;;;;1.08;0.50;;;;;;;;;;5074483;28;20067;-83
2023/09/07 12:11:01;;;;;;;0.93;0.50;;;;;;;;;;5093046;28;20467;-83
2023/09/07 12:13:27;;;;;;;2.25;0.60;;;;;;;;;;5093095;28;20139;-83
2023/09/07 12:15:52;;;;;;;1.52;0.60;;;;;;;;;;5090840;28;20081;-83
2023/09/07 12:18:18;;;;;;;1.88;0.80;;;;;;;;;;5090367;28;20047;-83
2023/09/07 12:20:44;;;;;;;1.83;0.80;;;;;;;;;;5092319;28;20551;-83
2023/09/07 12:23:10;;;;;;;0.85;0.47;;;;;;;;;;5091593;28;20495;-82
2023/09/07 12:25:36;;;;;;;1.83;0.82;;;;;;;;;;5090619;28;20106;-83
2023/09/07 12:28:02;;;;;;;0.63;0.40;;;;;;;;;;5091449;28;20488;-82
2023/09/07 12:30:28;;;;;;;1.23;0.45;;;;;;;;;;5086521;28;20104;-82
2023/09/07 12:32:53;;;;;;;5.47;0.68;;;;;;;;;;5088320;28;20051;-82
2023/09/07 12:35:20;;;;;;;1.08;0.55;;;;;;;;;;5086732;28;20487;-83
2023/09/07 12:37:45;;;;;;;2.53;0.70;;;;;;;;;;5071364;28;20032;-83
2023/09/07 12:40:12;;;;;;;2.47;0.80;;;;;;;;;;5091631;28;20027;-83
2023/09/07 12:42:41;;;;;;;2.42;0.70;;;;;;;;;;5091882;28;20028;-83
2023/09/07 12:45:07;;;;;;;1.98;0.60;;;;;;;;;;5090700;28;20028;-81
2023/09/07 12:47:59;;;;;;;3.33;0.65;;;;;;;;;;5084963;28;20038;-83
2023/09/07 12:50:24;;;;;;;3.35;0.70;;;;;;;;;;5091145;28;20036;-82
2023/09/07 12:52:50;;;;;;;1.00;0.50;;;;;;;;;;5090760;28;20119;-84
2023/09/07 12:55:16;;;;;;;2.28;0.65;;;;;;;;;;5089800;28;20131;-82
2023/09/07 12:57:43;;;;;;;2.97;0.70;;;;;;;;;;5091097;28;20058;-82
2023/09/07 13:00:10;;;;;;;4.45;0.65;;;;;;;;;;5090985;28;20085;-83
2023/09/07 13:02:36;;;;;;;1.33;0.60;;;;;;;;;;5090553;28;20035;-83
2023/09/07 13:05:05;;;;;;;1.77;0.65;;;;;;;;;;5090738;28;20024;-82
2023/09/07 13:07:32;;;;;;;1.63;0.60;;;;;;;;;;5088663;28;20041;-82
2023/09/07 13:09:57;;;;;;;1.17;0.50;;;;;;;;;;5072986;28;20036;-83
2023/09/07 13:12:23;;;;;;;1.70;0.50;;;;;;;;;;5089640;28;20043;-83
2023/09/07 13:14:48;;;;;;;2.28;0.90;;;;;;;;;;5068619;28;20540;-83
2023/09/07 13:17:14;;;;;;;2.33;0.90;;;;;;;;;;5090617;28;20028;-82
2023/09/07 13:19:40;;;;;;;2.85;0.80;;;;;;;;;;5089525;28;20036;-82
2023/09/07 13:22:06;;;;;;;1.83;0.80;;;;;;;;;;5090738;28;20028;-82
2023/09/07 13:24:32;;;;;;;1.73;0.63;;;;;;;;;;5089508;28;20109;-83
2023/09/07 13:26:57;;;;;;;2.42;0.70;;;;;;;;;;5091430;28;20153;-83
2023/09/07 13:29:23;;;;;;;1.40;0.60;;;;;;;;;;5090584;28;20105;-83
2023/09/07 13:31:49;;;;;;;1.10;0.50;;;;;;;;;;5090478;28;20036;-83
2023/09/07 13:34:14;;;;;;;2.13;0.60;;;;;;;;;;5089846;28;20067;-83
2023/09/07 13:36:40;;;;;;;2.47;0.60;;;;;;;;;;5090844;28;20052;-82
2023/09/07 13:39:05;;;;;;;2.13;0.60;;;;;;;;;;5090714;28;20116;-82
2023/09/07 13:41:31;;;;;;;1.88;0.45;;;;;;;;;;5090200;28;20024;-82
2023/09/07 13:43:58;;;;;;;2.72;0.60;;;;;;;;;;5090813;28;20032;-82
2023/09/07 13:46:24;;;;;;;1.77;0.80;;;;;;;;;;5089183;28;20081;-82
2023/09/07 13:48:49;;;;;;;2.13;0.90;;;;;;;;;;5090659;28;20028;-84
2023/09/07 13:51:15;;;;;;;2.55;1.02;;;;;;;;;;5090301;28;20028;-82
2023/09/07 13:53:40;;;;;;;1.38;0.90;;;;;;;;;;5086208;28;20032;-82
2023/09/07 13:56:06;;;;;;;1.42;0.80;;;;;;;;;;5090481;28;20375;-82
2023/09/07 13:58:31;;;;;;;1.95;0.80;;;;;;;;;;5089923;28;20034;-81
2023/09/07 14:00:57;;;;;;;6.22;0.93;;;;;;;;;;5089200;28;20498;-83
2023/09/07 14:03:22;;;;;;;1.40;0.80;;;;;;;;;;5089080;28;20039;-82
2023/09/07 14:05:48;;;;;;;2.70;0.85;;;;;;;;;;5090484;28;20086;-81
2023/09/07 14:08:13;;;;;;;2.67;0.60;;;;;;;;;;5070675;28;20029;-82
2023/09/07 14:10:39;;;;;;;2.58;0.55;;;;;;;;;;5088806;28;20032;-81
2023/09/07 14:13:04;;;;;;;2.78;0.60;;;;;;;;;;5090920;28;20032;-83
2023/09/07 14:15:31;;;;;;;2.67;0.55;;;;;;;;;;5090049;28;20110;-83
2023/09/07 14:17:56;;;;;;;2.53;0.60;;;;;;;;;;5089483;28;20162;-83
2023/09/07 14:20:22;;;;;;;1.30;0.60;;;;;;;;;;5092968;28;20107;-82
2023/09/07 14:22:47;;;;;;;1.20;0.50;;;;;;;;;;5094247;28;20036;-82
2023/09/07 14:25:13;;;;;;;2.90;0.70;;;;;;;;;;5093564;28;20038;-84
2023/09/07 14:27:39;;;;;;;3.03;0.70;;;;;;;;;;5089995;28;20028;-82
2023/09/07 14:30:05;;;;;;;2.25;0.80;;;;;;;;;;5093103;28;20030;-82
2023/09/07 14:32:30;;;;;;;4.22;0.68;;;;;;;;;;5092851;28;20036;-82
2023/09/07 14:34:56;;;;;;;1.70;0.60;;;;;;;;;;5076109;28;20016;-83
2023/09/07 14:37:21;;;;;;;3.03;0.85;;;;;;;;;;5094092;28;20556;-83